Dover, DE (19901)

3:28 PM EST on January 24, 2017 (GMT -0500)
St. Jones Commons (Sunde) | | Change Station
Active Advisory: Small Craft Advisory Active Notice: Public Information Statement

Elev 39 ft 39.13 °N, 75.51 °W | Updated 2 seconds ago

Overcast
Overcast
43.7 °F
Feels Like 42 °F
N
4.0
Wind Variable Wind from NNW
Gusts 7.0 mph

Today
High -- | Low -- °F
--% Chance of Precip.
Yesterday
High -- | Low -- °F
Precip. -- in
Pressure 29.42 in
Visibility 10.0 miles
Clouds Mostly Cloudy 2500 ft
Overcast 3100 ft
Windchill 42 °F
Dew Point 37 °F
Humidity 77%
Rainfall 0.00 in
Snow Depth Not available.
7:14 AM 5:13 PM
Waning Crescent, 10% visible
METAR KDOV 241958Z AUTO 29016G22KT 10SM BKN025 OVC031 07/07 A2941 RMK AO2 PK WND 30030/48 CIG 025V032 SLP963 T00700070 $
Pressure 29.42 in
Visibility 10.0 miles
Clouds Mostly Cloudy 2500 ft
Overcast 3100 ft
Windchill 42 °F
Dew Point 37 °F
Humidity 77%
Rainfall 0.00 in
Snow Depth Not available.
7:14 AM 5:13 PM
Waning Crescent, 10% visible
METAR KDOV 241958Z AUTO 29016G22KT 10SM BKN025 OVC031 07/07 A2941 RMK AO2 PK WND 30030/48 CIG 025V032 SLP963 T00700070 $

Get Your Daily Forecast Email!

Thanks for signing up!

Be on the lookout for a verification email in your inbox.

You'll start receiving the daily forecast at 8 AM.

×

10-Day Weather Forecast

Almanac

Astronomy

Jan. 24, 2017 Rise Set
Actual Time
Civil Twilight
Nautical Twilight
Astronomical Twilight
Moon
Length of Visible Light
Length of Day
Tomorrow will be .
, % of the Moon is Illuminated

Today's Extremes

State Highs State Lows

Community

WunderPhotos

Upload Photos

1,962,540 photos uploaded!

WunderBlog® & News

Nearby

Air Quality

  Air Quality AQ Index Pollutant
Not available.

Snow Depth

Station Depth Elevation

Earthquake Activity

City Distance Mag. Time & Date
Minimum magnitude displayed is 2.5.

Coastal Water Temperatures

Place Temperature

Stations

Nearby Weather Stations

Station Location Temp. Windchill Dew Point Humidity Wind Precip. Elev Updated Type
                   

Watches & Warnings

Small Craft Advisory
Issued: 2:51 PM EST Jan. 24, 2017 – National Weather Service

... Small Craft Advisory now in effect until 6 am EST Wednesday...

* winds... northwest 10 to 20 kt with gusts up to 30 kt.

* Seas... 1 to 3 feet.

* Location... upper Delaware Bay.

Precautionary/preparedness actions...

A Small Craft Advisory means that wind speeds of 25 to 33 knots
are expected to produce hazardous wave conditions to small craft.
Inexperienced mariners... especially those operating smaller
vessels should avoid navigating in these conditions.